createdAt,value
2023-01-21T00:01:16.978Z,29.57
2023-01-21T00:03:45.757Z,31.43
2023-01-21T00:06:15.915Z,33.00
2023-01-21T00:08:44.356Z,27.90
2023-01-21T00:11:14.969Z,26.27
2023-01-21T00:13:45.262Z,34.00
2023-01-21T00:16:14.167Z,28.37
2023-01-21T00:18:42.593Z,29.00
2023-01-21T00:21:10.905Z,28.97
2023-01-21T00:23:41.614Z,27.90
2023-01-21T00:26:12.601Z,24.67
2023-01-21T00:28:43.627Z,28.43
2023-01-21T00:31:13.553Z,30.27
2023-01-21T00:33:41.790Z,25.30
2023-01-21T00:36:11.867Z,28.50
2023-01-21T00:38:40.352Z,26.17
2023-01-21T00:41:12.679Z,26.40
2023-01-21T00:43:41.708Z,30.10
2023-01-21T00:46:10.838Z,32.20
2023-01-21T00:48:40.813Z,31.10
2023-01-21T00:51:09.802Z,32.60
2023-01-21T00:53:41.834Z,27.23
2023-01-21T00:56:11.709Z,31.47
2023-01-21T00:58:40.427Z,31.57
2023-01-21T01:01:11.356Z,27.47
2023-01-21T01:03:42.323Z,32.90
2023-01-21T01:06:13.133Z,31.90
2023-01-21T01:08:41.513Z,31.00
2023-01-21T01:11:09.803Z,30.67
2023-01-21T01:13:38.112Z,25.80
2023-01-21T01:16:06.954Z,28.03
2023-01-21T01:18:36.608Z,31.80
2023-01-21T01:21:07.364Z,29.70
2023-01-21T01:23:35.571Z,30.77
2023-01-21T01:26:05.761Z,38.60
2023-01-21T01:28:34.977Z,29.20
2023-01-21T01:31:06.192Z,33.40
2023-01-21T01:33:34.927Z,33.60
2023-01-21T01:36:03.383Z,33.27
2023-01-21T01:38:32.937Z,32.10
2023-01-21T01:41:01.183Z,34.30
2023-01-21T01:43:50.531Z,31.10
2023-01-21T01:46:19.189Z,31.60
2023-01-21T01:48:52.539Z,28.53
2023-01-21T01:51:23.900Z,33.70
2023-01-21T01:53:54.315Z,31.80
2023-01-21T01:56:22.993Z,28.03
2023-01-21T01:58:51.211Z,28.97
2023-01-21T02:01:19.582Z,31.03
2023-01-21T02:03:54.343Z,31.17
2023-01-21T02:06:22.523Z,28.93
2023-01-21T02:08:50.849Z,34.90
2023-01-21T02:11:21.742Z,34.60
2023-01-21T02:13:54.237Z,28.37
2023-01-21T02:16:47.334Z,29.33
2023-01-21T02:19:43.982Z,29.10
2023-01-21T02:22:27.329Z,33.10
2023-01-21T02:25:25.969Z,33.37
2023-01-21T02:28:22.998Z,34.00
2023-01-21T02:31:22.014Z,34.23
2023-01-21T02:33:58.927Z,33.40
2023-01-21T02:36:39.538Z,31.73
2023-01-21T02:39:15.307Z,29.47
2023-01-21T02:41:57.299Z,31.30
2023-01-21T02:44:32.259Z,25.70
2023-01-21T02:47:07.963Z,34.13
2023-01-21T02:49:41.389Z,33.37
2023-01-21T02:52:09.900Z,32.20
2023-01-21T02:54:53.069Z,28.20
2023-01-21T02:57:40.877Z,35.43
2023-01-21T03:00:14.839Z,30.17
2023-01-21T03:03:22.492Z,39.37
2023-01-21T03:06:08.069Z,34.90
2023-01-21T03:08:42.815Z,33.33
2023-01-21T03:11:16.129Z,27.47
2023-01-21T03:14:08.705Z,30.10
2023-01-21T03:16:59.606Z,30.30
2023-01-21T03:19:36.375Z,33.90
2023-01-21T03:22:11.097Z,31.97
2023-01-21T03:24:43.458Z,37.00
2023-01-21T03:27:15.599Z,32.90
2023-01-21T03:29:45.645Z,33.73
2023-01-21T03:32:16.526Z,30.63
2023-01-21T03:34:50.246Z,32.37
2023-01-21T03:37:28.970Z,34.90
2023-01-21T03:40:06.239Z,44.37
2023-01-21T03:42:35.042Z,32.10
2023-01-21T03:45:03.575Z,34.90
2023-01-21T03:47:35.478Z,26.33
2023-01-21T03:50:08.714Z,34.70
2023-01-21T03:52:41.888Z,31.03
2023-01-21T03:55:12.323Z,34.73
2023-01-21T03:57:40.609Z,34.10
2023-01-21T04:00:09.928Z,33.07
2023-01-21T04:02:38.077Z,37.70
2023-01-21T04:05:06.955Z,28.50
2023-01-21T04:07:35.091Z,30.83
2023-01-21T04:10:05.239Z,35.37
2023-01-21T04:12:33.457Z,33.07
2023-01-21T04:15:04.253Z,31.23
2023-01-21T04:17:33.520Z,29.80
2023-01-21T04:20:01.705Z,23.73
2023-01-21T04:22:29.783Z,25.40
2023-01-21T04:24:57.922Z,30.37
2023-01-21T04:27:27.418Z,32.63
2023-01-21T04:29:55.885Z,29.53
2023-01-21T04:32:24.191Z,29.90
2023-01-21T04:34:52.381Z,33.87
2023-01-21T04:37:20.546Z,25.63
2023-01-21T04:39:48.721Z,27.23
2023-01-21T04:42:16.742Z,24.17
2023-01-21T04:44:46.395Z,24.20
2023-01-21T04:47:14.441Z,27.80
2023-01-21T04:49:42.575Z,27.80
2023-01-21T04:52:10.714Z,27.47
2023-01-21T04:54:38.838Z,32.40
2023-01-21T04:57:07.086Z,33.03
2023-01-21T04:59:35.214Z,28.70
2023-01-21T05:02:04.733Z,27.00
2023-01-21T05:04:33.859Z,30.07
2023-01-21T05:07:02.087Z,28.63
2023-01-21T05:09:30.196Z,28.23
2023-01-21T05:11:58.203Z,32.30
2023-01-21T05:14:26.454Z,29.43
2023-01-21T05:16:54.540Z,28.43
2023-01-21T05:19:24.099Z,27.77
2023-01-21T05:21:52.345Z,29.70
2023-01-21T05:24:20.543Z,31.17
2023-01-21T05:26:49.650Z,26.83
2023-01-21T05:29:18.183Z,25.43
2023-01-21T05:31:46.436Z,27.80
2023-01-21T05:34:14.636Z,26.00
2023-01-21T05:36:44.075Z,30.20
2023-01-21T05:39:12.421Z,26.43
2023-01-21T05:41:40.512Z,29.87
2023-01-21T05:44:09.883Z,30.10
2023-01-21T05:46:37.974Z,31.97
2023-01-21T05:49:06.301Z,26.23
2023-01-21T05:51:34.482Z,27.43
2023-01-21T05:54:03.953Z,25.23
2023-01-21T05:56:32.018Z,27.00
2023-01-21T05:59:00.148Z,29.47
2023-01-21T06:01:28.295Z,24.77
2023-01-21T06:03:56.408Z,27.43
2023-01-21T06:06:24.594Z,26.40
2023-01-21T06:08:52.713Z,28.20
2023-01-21T06:11:22.188Z,23.70
2023-01-21T06:13:50.235Z,30.30
2023-01-21T06:16:18.292Z,27.97
2023-01-21T06:18:46.378Z,28.70
2023-01-21T06:21:14.574Z,28.60
2023-01-21T06:23:42.910Z,25.57
2023-01-21T06:26:11.434Z,25.57
2023-01-21T06:28:40.878Z,25.50
2023-01-21T06:31:09.042Z,26.80
2023-01-21T06:33:37.181Z,24.23
2023-01-21T06:36:05.890Z,28.27
2023-01-21T06:38:35.990Z,22.87
2023-01-21T06:41:04.719Z,24.37
2023-01-21T06:43:32.968Z,24.60
2023-01-21T06:46:02.569Z,28.17
2023-01-21T06:48:30.641Z,29.60
2023-01-21T06:51:01.291Z,29.93
2023-01-21T06:53:29.429Z,25.43
2023-01-21T06:55:57.519Z,25.63
2023-01-21T06:58:25.656Z,27.57
2023-01-21T07:00:56.916Z,24.90
2023-01-21T07:03:26.453Z,27.67
2023-01-21T07:05:54.507Z,26.83
2023-01-21T07:08:22.579Z,30.87
2023-01-21T07:10:50.743Z,27.27
2023-01-21T07:13:19.837Z,28.00
2023-01-21T07:15:48.085Z,26.57
2023-01-21T07:18:16.183Z,26.83
2023-01-21T07:20:45.645Z,31.17
2023-01-21T07:23:13.648Z,31.93
2023-01-21T07:25:42.182Z,30.53
2023-01-21T07:28:10.294Z,26.43
2023-01-21T07:30:38.552Z,29.70
2023-01-21T07:33:07.677Z,33.80
2023-01-21T07:35:36.125Z,28.63
2023-01-21T07:38:05.864Z,24.07
2023-01-21T07:40:34.019Z,28.10
2023-01-21T07:43:02.088Z,29.47
2023-01-21T07:45:31.261Z,29.83
2023-01-21T07:48:00.138Z,31.67
2023-01-21T07:50:28.530Z,27.27
2023-01-21T07:52:56.561Z,32.93
2023-01-21T07:55:26.392Z,28.60
2023-01-21T07:57:56.874Z,24.13
2023-01-21T08:00:27.045Z,28.80
2023-01-21T08:02:55.501Z,26.13
2023-01-21T08:05:25.077Z,23.00
2023-01-21T08:07:53.650Z,29.20
2023-01-21T08:10:22.462Z,27.60
2023-01-21T08:12:51.982Z,29.77
2023-01-21T08:15:20.058Z,30.80
2023-01-21T08:17:48.922Z,31.73
2023-01-21T08:20:17.252Z,26.77
2023-01-21T08:22:45.388Z,26.27
2023-01-21T08:25:13.598Z,28.43
2023-01-21T08:27:41.780Z,26.67
2023-01-21T08:30:12.461Z,30.83
2023-01-21T08:32:40.778Z,26.70
2023-01-21T08:35:10.251Z,28.50
2023-01-21T08:37:39.606Z,29.43
2023-01-21T08:40:09.271Z,27.77
2023-01-21T08:42:37.401Z,31.83
2023-01-21T08:45:06.497Z,27.47
2023-01-21T08:47:35.945Z,30.00
2023-01-21T08:50:04.089Z,27.97
2023-01-21T08:52:32.241Z,27.90
2023-01-21T08:55:00.344Z,30.47
2023-01-21T08:57:28.534Z,28.53
2023-01-21T08:59:56.539Z,30.33
2023-01-21T09:02:24.681Z,29.00
2023-01-21T09:04:54.181Z,25.57
2023-01-21T09:07:22.266Z,24.27
2023-01-21T09:09:50.375Z,32.67
2023-01-21T09:12:18.467Z,30.63
2023-01-21T09:14:46.556Z,27.00
2023-01-21T09:17:14.769Z,26.90
2023-01-21T09:19:43.060Z,27.27
2023-01-21T09:22:13.827Z,30.47
2023-01-21T09:24:41.917Z,33.03
2023-01-21T09:27:11.091Z,29.10
2023-01-21T09:29:39.472Z,26.73
2023-01-21T09:32:07.858Z,29.10
2023-01-21T09:34:36.034Z,30.10
2023-01-21T09:37:05.231Z,28.33
2023-01-21T09:39:34.753Z,28.77
2023-01-21T09:42:05.978Z,24.77
2023-01-21T09:44:55.637Z,29.47
2023-01-21T09:47:30.700Z,28.53
2023-01-21T09:50:02.173Z,28.73
2023-01-21T09:52:34.700Z,24.50
2023-01-21T09:55:06.219Z,28.80
2023-01-21T09:57:45.929Z,25.93
2023-01-21T10:00:30.990Z,18.40
2023-01-21T10:03:05.401Z,30.63
2023-01-21T10:06:04.693Z,22.30
2023-01-21T10:08:38.919Z,24.93
2023-01-21T10:11:27.740Z,22.63
2023-01-21T10:14:15.169Z,22.77
2023-01-21T10:16:52.737Z,26.80
2023-01-21T10:19:25.604Z,20.47
2023-01-21T10:21:58.452Z,27.23
2023-01-21T10:24:31.570Z,25.07
2023-01-21T10:27:01.963Z,25.07
2023-01-21T10:29:30.395Z,26.23
2023-01-21T10:32:03.373Z,26.10
2023-01-21T10:34:33.100Z,28.73
2023-01-21T10:37:08.009Z,28.30
2023-01-21T10:39:46.219Z,26.17
2023-01-21T10:42:38.917Z,25.43
2023-01-21T10:45:18.760Z,29.17
2023-01-21T10:47:52.323Z,30.73
2023-01-21T10:50:30.553Z,30.20
2023-01-21T10:53:03.693Z,22.80
2023-01-21T10:55:43.829Z,25.97
2023-01-21T10:58:25.552Z,19.37
2023-01-21T11:00:55.255Z,26.40
2023-01-21T11:03:31.987Z,27.30
2023-01-21T11:06:02.704Z,28.53
2023-01-21T11:08:30.816Z,19.13
2023-01-21T11:10:59.246Z,24.03
2023-01-21T11:13:28.737Z,26.00
2023-01-21T11:15:59.245Z,22.23
2023-01-21T11:18:34.303Z,23.63
2023-01-21T11:21:05.363Z,25.63
2023-01-21T11:23:35.712Z,23.17
2023-01-21T11:26:07.339Z,18.10
2023-01-21T11:28:38.223Z,25.97
2023-01-21T11:31:12.602Z,16.90
2023-01-21T11:33:42.755Z,23.10
2023-01-21T11:36:16.071Z,19.93
2023-01-21T11:38:45.513Z,23.63
2023-01-21T11:41:19.350Z,18.83
2023-01-21T11:43:51.406Z,21.90
2023-01-21T11:46:31.673Z,19.13
2023-01-21T11:49:23.963Z,21.17
2023-01-21T11:52:05.507Z,20.70
2023-01-21T11:54:39.301Z,19.50
2023-01-21T11:57:10.245Z,20.13
2023-01-21T11:59:41.948Z,16.40
2023-01-21T12:02:18.375Z,19.50
2023-01-21T12:04:49.413Z,16.80
2023-01-21T12:07:21.469Z,14.40
2023-01-21T12:09:51.908Z,19.50
2023-01-21T12:12:31.959Z,19.33
2023-01-21T12:15:11.450Z,16.67
2023-01-21T12:17:52.223Z,20.10
2023-01-21T12:20:31.197Z,17.43
2023-01-21T12:23:17.237Z,17.70
2023-01-21T12:25:52.117Z,14.50
2023-01-21T12:28:44.569Z,19.07
2023-01-21T12:31:25.076Z,17.17
2023-01-21T12:34:00.699Z,16.17
2023-01-21T12:36:34.818Z,17.40
2023-01-21T12:39:21.579Z,14.97
2023-01-21T12:41:58.623Z,20.00
2023-01-21T12:44:33.422Z,16.50
2023-01-21T12:47:06.914Z,16.97
2023-01-21T12:49:55.235Z,16.97
2023-01-21T12:52:30.209Z,17.67
2023-01-21T12:55:02.386Z,18.20
2023-01-21T12:57:35.354Z,14.83
2023-01-21T13:00:14.168Z,19.30
2023-01-21T13:02:52.880Z,15.60
2023-01-21T13:05:28.560Z,15.43
2023-01-21T13:08:04.332Z,16.63
2023-01-21T13:10:36.760Z,18.77
2023-01-21T13:13:11.725Z,19.03
2023-01-21T13:15:43.334Z,17.67
2023-01-21T13:18:16.438Z,16.93
2023-01-21T13:20:52.632Z,18.30
2023-01-21T13:23:29.339Z,14.20
2023-01-21T13:26:03.303Z,15.17
2023-01-21T13:28:36.655Z,16.47
2023-01-21T13:31:13.114Z,14.67
2023-01-21T13:33:53.898Z,16.10
2023-01-21T13:36:31.826Z,17.80
2023-01-21T13:39:05.948Z,16.83
2023-01-21T13:41:53.807Z,16.47
2023-01-21T13:44:55.834Z,17.57
2023-01-21T13:47:39.043Z,16.53
2023-01-21T13:50:25.754Z,16.50
2023-01-21T13:53:07.711Z,16.77
2023-01-21T13:55:46.052Z,14.17
2023-01-21T13:58:19.624Z,16.97
2023-01-21T14:00:56.508Z,16.33
2023-01-21T14:03:32.924Z,14.80
2023-01-21T14:06:07.410Z,13.73
2023-01-21T14:08:41.906Z,14.10
2023-01-21T14:11:13.615Z,16.60
2023-01-21T14:14:19.569Z,15.00
2023-01-21T14:17:05.632Z,15.20
2023-01-21T14:20:03.531Z,12.60
2023-01-21T14:22:51.255Z,14.40
2023-01-21T14:25:32.598Z,15.13
2023-01-21T14:28:09.991Z,14.50
2023-01-21T14:30:42.926Z,16.43
2023-01-21T14:33:17.430Z,10.80
2023-01-21T14:35:53.579Z,13.50
2023-01-21T14:38:30.899Z,14.50
2023-01-21T14:41:07.435Z,16.00
2023-01-21T14:43:52.731Z,12.93
2023-01-21T14:46:32.818Z,13.87
2023-01-21T14:49:06.410Z,12.27
2023-01-21T14:51:37.135Z,14.87
2023-01-21T14:54:14.076Z,12.90
2023-01-21T14:56:53.986Z,12.47
2023-01-21T14:59:34.575Z,14.90
2023-01-21T15:02:04.779Z,10.30
2023-01-21T15:04:37.328Z,12.57
2023-01-21T15:07:14.033Z,9.37
2023-01-21T15:09:51.088Z,12.80
2023-01-21T15:12:23.659Z,11.67
2023-01-21T15:14:56.854Z,14.50
2023-01-21T15:18:03.310Z,10.80
2023-01-21T15:20:49.708Z,11.80
2023-01-21T15:23:28.908Z,12.07
2023-01-21T15:26:20.412Z,13.00
2023-01-21T15:28:51.995Z,10.83
2023-01-21T15:31:43.369Z,13.43
2023-01-21T15:34:17.549Z,15.03
2023-01-21T15:36:47.640Z,9.47
2023-01-21T15:39:17.455Z,12.93
2023-01-21T15:42:03.763Z,10.13
2023-01-21T15:44:48.569Z,11.70
2023-01-21T15:47:36.300Z,10.77
2023-01-21T15:50:09.564Z,12.50
2023-01-21T15:52:49.407Z,11.83
2023-01-21T15:55:43.488Z,13.37
2023-01-21T15:58:22.353Z,11.83
2023-01-21T16:00:56.058Z,11.20
2023-01-21T16:03:29.674Z,11.67
2023-01-21T16:06:05.447Z,10.57
2023-01-21T16:09:00.818Z,10.97
2023-01-21T16:11:50.397Z,12.40
2023-01-21T16:14:32.812Z,20.27
2023-01-21T16:17:12.572Z,12.40
2023-01-21T16:19:45.424Z,17.07
2023-01-21T16:22:18.208Z,18.67
2023-01-21T16:24:49.243Z,14.87
2023-01-21T16:27:18.853Z,13.20
2023-01-21T16:29:48.486Z,13.20
2023-01-21T16:32:20.694Z,14.87
2023-01-21T16:34:49.175Z,11.50
2023-01-21T16:37:19.686Z,12.03
2023-01-21T16:39:48.192Z,12.20
2023-01-21T16:42:27.399Z,10.93
2023-01-21T16:44:57.111Z,12.80
2023-01-21T16:47:28.409Z,12.80
2023-01-21T16:49:56.500Z,14.70
2023-01-21T16:52:24.904Z,14.20
2023-01-21T16:54:54.538Z,13.50
2023-01-21T16:57:28.743Z,12.63
2023-01-21T17:00:02.469Z,11.60
2023-01-21T17:02:33.346Z,13.47
2023-01-21T17:05:04.623Z,14.20
2023-01-21T17:07:35.681Z,14.80
2023-01-21T17:10:06.927Z,11.43
2023-01-21T17:12:36.570Z,13.97
2023-01-21T17:15:20.247Z,11.20
2023-01-21T17:17:48.674Z,10.10
2023-01-21T17:20:36.132Z,15.83
2023-01-21T17:23:06.821Z,16.30
2023-01-21T17:25:36.733Z,14.90
2023-01-21T17:28:18.589Z,16.30
2023-01-21T17:30:48.379Z,13.27
2023-01-21T17:33:30.923Z,20.13
2023-01-21T17:36:09.235Z,28.90
2023-01-21T17:38:41.788Z,14.40
2023-01-21T17:41:14.453Z,22.00
2023-01-21T17:43:49.682Z,26.43
2023-01-21T17:46:22.747Z,23.47
2023-01-21T17:48:54.290Z,33.13
2023-01-21T17:51:26.568Z,19.10
2023-01-21T17:53:58.863Z,14.20
2023-01-21T17:56:39.081Z,18.20
2023-01-21T17:59:31.437Z,18.20
2023-01-21T18:02:01.868Z,15.57
2023-01-21T18:04:29.994Z,18.40
2023-01-21T18:06:58.446Z,14.10
2023-01-21T18:09:28.266Z,12.97
2023-01-21T18:11:58.749Z,13.80
2023-01-21T18:14:28.791Z,13.70
2023-01-21T18:16:56.886Z,16.47
2023-01-21T18:19:32.304Z,14.40
2023-01-21T18:22:01.033Z,17.27
2023-01-21T18:24:29.929Z,25.00
2023-01-21T18:26:58.966Z,17.47
2023-01-21T18:29:30.367Z,17.87
2023-01-21T18:31:59.113Z,18.20
2023-01-21T18:34:27.228Z,17.03
2023-01-21T18:36:57.746Z,19.20
2023-01-21T18:39:25.945Z,19.73
2023-01-21T18:41:54.018Z,22.53
2023-01-21T18:44:22.064Z,22.27
2023-01-21T18:46:51.581Z,15.60
2023-01-21T18:49:21.514Z,22.40
2023-01-21T18:51:49.703Z,21.60
2023-01-21T18:54:19.147Z,18.17
2023-01-21T18:56:47.842Z,17.47
2023-01-21T18:59:18.002Z,16.80
2023-01-21T19:01:46.716Z,20.73
2023-01-21T19:04:18.139Z,32.17
2023-01-21T19:06:47.618Z,22.90
2023-01-21T19:09:21.846Z,16.90
2023-01-21T19:11:50.385Z,19.97
2023-01-21T19:14:18.510Z,21.00
2023-01-21T19:16:47.405Z,26.67
2023-01-21T19:19:19.045Z,18.90
2023-01-21T19:21:47.303Z,19.03
2023-01-21T19:24:15.425Z,21.83
2023-01-21T19:26:44.912Z,22.17
2023-01-21T19:29:16.174Z,19.37
2023-01-21T19:31:44.276Z,15.50
2023-01-21T19:34:12.610Z,15.80
2023-01-21T19:36:41.017Z,18.57
2023-01-21T19:39:16.949Z,17.63
2023-01-21T19:41:46.394Z,15.33
2023-01-21T19:44:14.529Z,19.43
2023-01-21T19:46:42.714Z,16.60
2023-01-21T19:49:15.542Z,15.43
2023-01-21T19:51:44.840Z,20.67
2023-01-21T19:54:12.980Z,17.23
2023-01-21T19:56:41.144Z,19.57
2023-01-21T19:59:15.259Z,19.13
2023-01-21T20:01:43.879Z,18.80
2023-01-21T20:04:12.137Z,17.60
2023-01-21T20:06:41.972Z,18.70
2023-01-21T20:09:14.672Z,19.20
2023-01-21T20:11:42.758Z,20.73
2023-01-21T20:14:12.376Z,15.87
2023-01-21T20:16:46.767Z,20.03
2023-01-21T20:19:17.745Z,16.90
2023-01-21T20:21:55.081Z,17.63
2023-01-21T20:24:30.299Z,16.93
2023-01-21T20:26:58.939Z,18.77
2023-01-21T20:29:28.435Z,17.20
2023-01-21T20:31:56.549Z,15.27
2023-01-21T20:34:24.659Z,16.33
2023-01-21T20:36:53.565Z,18.50
2023-01-21T20:39:21.909Z,16.63
2023-01-21T20:41:50.094Z,21.47
2023-01-21T20:44:18.274Z,21.40
2023-01-21T20:46:48.609Z,19.60
2023-01-21T20:49:16.843Z,22.07
2023-01-21T20:51:44.920Z,18.87
2023-01-21T20:54:13.470Z,22.63
2023-01-21T20:56:41.667Z,19.70
2023-01-21T20:59:10.782Z,19.80
2023-01-21T21:01:39.700Z,19.73
2023-01-21T21:04:09.199Z,21.57
2023-01-21T21:06:37.361Z,21.17
2023-01-21T21:09:05.519Z,22.00
2023-01-21T21:11:33.598Z,22.07
2023-01-21T21:14:01.960Z,19.23
2023-01-21T21:16:32.035Z,19.37
2023-01-21T21:19:00.552Z,19.60
2023-01-21T21:21:30.176Z,20.47
2023-01-21T21:23:58.259Z,19.87
2023-01-21T21:26:29.248Z,18.90
2023-01-21T21:28:58.151Z,24.30
2023-01-21T21:31:30.153Z,19.57
2023-01-21T21:33:58.285Z,20.00
2023-01-21T21:36:26.335Z,18.97
2023-01-21T21:38:56.475Z,23.10
2023-01-21T21:41:44.566Z,19.97
2023-01-21T21:44:13.809Z,17.10
2023-01-21T21:46:59.748Z,18.77
2023-01-21T21:49:28.722Z,20.67
2023-01-21T21:51:57.196Z,16.30
2023-01-21T21:54:26.729Z,18.90
2023-01-21T21:56:54.825Z,18.20
2023-01-21T21:59:23.008Z,19.00
2023-01-21T22:01:51.161Z,22.37
2023-01-21T22:04:21.191Z,18.07
2023-01-21T22:06:49.365Z,18.33
2023-01-21T22:09:17.544Z,20.57
2023-01-21T22:11:47.226Z,21.27
2023-01-21T22:14:15.552Z,18.97
2023-01-21T22:16:44.352Z,25.00
2023-01-21T22:19:13.364Z,19.33
2023-01-21T22:21:41.396Z,21.53
2023-01-21T22:24:10.480Z,19.93
2023-01-21T22:26:38.983Z,20.80
2023-01-21T22:29:08.573Z,20.40
2023-01-21T22:31:36.757Z,22.80
2023-01-21T22:34:05.251Z,17.63
2023-01-21T22:36:33.375Z,20.43
2023-01-21T22:39:01.766Z,18.50
2023-01-21T22:41:29.818Z,21.37
2023-01-21T22:43:58.104Z,18.77
2023-01-21T22:46:30.385Z,18.73
2023-01-21T22:48:58.988Z,18.43
2023-01-21T22:51:27.632Z,22.50
2023-01-21T22:53:56.017Z,22.77
2023-01-21T22:56:44.825Z,18.00
2023-01-21T22:59:14.071Z,19.67
2023-01-21T23:01:43.535Z,19.37
2023-01-21T23:04:31.480Z,18.70
2023-01-21T23:06:59.605Z,19.77
2023-01-21T23:09:27.895Z,22.00
2023-01-21T23:11:56.329Z,21.17
2023-01-21T23:14:24.477Z,18.63
2023-01-21T23:16:53.618Z,23.93
2023-01-21T23:19:21.698Z,19.03
2023-01-21T23:21:51.256Z,22.73
2023-01-21T23:24:19.692Z,20.70
2023-01-21T23:26:47.797Z,19.80
2023-01-21T23:29:15.893Z,18.03
2023-01-21T23:31:44.073Z,21.67
2023-01-21T23:34:14.748Z,25.30
2023-01-21T23:36:43.039Z,20.20
2023-01-21T23:39:13.634Z,18.07
2023-01-21T23:41:41.680Z,18.93
2023-01-21T23:44:10.850Z,16.67
2023-01-21T23:46:39.159Z,21.10
2023-01-21T23:49:07.931Z,19.73
2023-01-21T23:51:36.658Z,19.47
2023-01-21T23:54:04.955Z,20.70
2023-01-21T23:56:34.532Z,20.60
2023-01-21T23:59:02.599Z,20.77
